sensor_id;sensor_type;location;lat;lon;timestamp;P1;durP1;ratioP1;P2;durP2;ratioP2
9142;SDS011;54072;47.410;8.446;2023-05-07T00:00:12;3.90;;;3.60;;
9142;SDS011;54072;47.410;8.446;2023-05-07T00:02:43;4.27;;;3.13;;
9142;SDS011;54072;47.410;8.446;2023-05-07T00:05:11;4.37;;;3.37;;
9142;SDS011;54072;47.410;8.446;2023-05-07T00:07:38;3.73;;;3.27;;
9142;SDS011;54072;47.410;8.446;2023-05-07T00:10:06;3.67;;;3.37;;
9142;SDS011;54072;47.410;8.446;2023-05-07T00:12:34;3.63;;;3.13;;
9142;SDS011;54072;47.410;8.446;2023-05-07T00:15:02;3.67;;;3.00;;
9142;SDS011;54072;47.410;8.446;2023-05-07T00:17:30;3.30;;;3.00;;
9142;SDS011;54072;47.410;8.446;2023-05-07T00:19:59;3.10;;;2.80;;
9142;SDS011;54072;47.410;8.446;2023-05-07T00:22:26;4.17;;;2.93;;
9142;SDS011;54072;47.410;8.446;2023-05-07T00:24:56;3.37;;;2.80;;
9142;SDS011;54072;47.410;8.446;2023-05-07T00:27:24;7.10;;;3.20;;
9142;SDS011;54072;47.410;8.446;2023-05-07T00:29:52;3.33;;;2.87;;
9142;SDS011;54072;47.410;8.446;2023-05-07T00:32:19;5.80;;;3.20;;
9142;SDS011;54072;47.410;8.446;2023-05-07T00:34:47;3.63;;;3.13;;
9142;SDS011;54072;47.410;8.446;2023-05-07T00:37:16;3.40;;;3.10;;
9142;SDS011;54072;47.410;8.446;2023-05-07T00:39:44;3.97;;;3.07;;
9142;SDS011;54072;47.410;8.446;2023-05-07T00:42:11;4.07;;;3.13;;
9142;SDS011;54072;47.410;8.446;2023-05-07T00:44:41;3.97;;;3.30;;
9142;SDS011;54072;47.410;8.446;2023-05-07T00:47:08;3.73;;;3.43;;
9142;SDS011;54072;47.410;8.446;2023-05-07T00:49:37;4.30;;;3.20;;
9142;SDS011;54072;47.410;8.446;2023-05-07T00:52:06;3.73;;;3.30;;
9142;SDS011;54072;47.410;8.446;2023-05-07T00:54:35;5.23;;;3.90;;
9142;SDS011;54072;47.410;8.446;2023-05-07T00:57:03;4.37;;;3.47;;
9142;SDS011;54072;47.410;8.446;2023-05-07T00:59:31;3.73;;;3.37;;
9142;SDS011;54072;47.410;8.446;2023-05-07T01:01:59;6.07;;;3.37;;
9142;SDS011;54072;47.410;8.446;2023-05-07T01:04:26;3.83;;;3.40;;
9142;SDS011;54072;47.410;8.446;2023-05-07T01:06:54;3.53;;;3.13;;
9142;SDS011;54072;47.410;8.446;2023-05-07T01:09:22;3.70;;;3.23;;
9142;SDS011;54072;47.410;8.446;2023-05-07T01:11:52;3.33;;;3.03;;
9142;SDS011;54072;47.410;8.446;2023-05-07T01:14:20;3.43;;;3.03;;
9142;SDS011;54072;47.410;8.446;2023-05-07T01:16:48;6.30;;;3.60;;
9142;SDS011;54072;47.410;8.446;2023-05-07T01:19:17;3.63;;;3.30;;
9142;SDS011;54072;47.410;8.446;2023-05-07T01:21:46;5.33;;;3.33;;
9142;SDS011;54072;47.410;8.446;2023-05-07T01:24:15;4.67;;;3.37;;
9142;SDS011;54072;47.410;8.446;2023-05-07T01:26:43;5.70;;;3.30;;
9142;SDS011;54072;47.410;8.446;2023-05-07T01:29:11;3.53;;;3.23;;
9142;SDS011;54072;47.410;8.446;2023-05-07T01:31:38;4.37;;;3.63;;
9142;SDS011;54072;47.410;8.446;2023-05-07T01:34:07;3.50;;;3.20;;
9142;SDS011;54072;47.410;8.446;2023-05-07T01:36:35;8.67;;;3.40;;
9142;SDS011;54072;47.410;8.446;2023-05-07T01:39:04;4.30;;;3.47;;
9142;SDS011;54072;47.410;8.446;2023-05-07T01:41:33;3.57;;;3.27;;
9142;SDS011;54072;47.410;8.446;2023-05-07T01:44:01;3.67;;;3.07;;
9142;SDS011;54072;47.410;8.446;2023-05-07T01:46:30;4.83;;;3.33;;
9142;SDS011;54072;47.410;8.446;2023-05-07T01:48:58;3.60;;;3.30;;
9142;SDS011;54072;47.410;8.446;2023-05-07T01:51:26;4.40;;;4.00;;
9142;SDS011;54072;47.410;8.446;2023-05-07T01:53:53;3.50;;;3.20;;
9142;SDS011;54072;47.410;8.446;2023-05-07T01:56:21;6.10;;;3.53;;
9142;SDS011;54072;47.410;8.446;2023-05-07T01:58:50;3.63;;;3.30;;
9142;SDS011;54072;47.410;8.446;2023-05-07T02:01:18;4.50;;;3.50;;
9142;SDS011;54072;47.410;8.446;2023-05-07T02:03:45;4.07;;;3.30;;
9142;SDS011;54072;47.410;8.446;2023-05-07T02:06:13;3.90;;;3.30;;
9142;SDS011;54072;47.410;8.446;2023-05-07T02:08:40;3.73;;;3.30;;
9142;SDS011;54072;47.410;8.446;2023-05-07T02:11:08;5.10;;;3.30;;
9142;SDS011;54072;47.410;8.446;2023-05-07T02:13:35;5.13;;;3.40;;
9142;SDS011;54072;47.410;8.446;2023-05-07T02:16:05;4.10;;;3.70;;
9142;SDS011;54072;47.410;8.446;2023-05-07T02:18:32;6.07;;;3.53;;
9142;SDS011;54072;47.410;8.446;2023-05-07T02:21:00;3.93;;;3.60;;
9142;SDS011;54072;47.410;8.446;2023-05-07T02:23:27;4.10;;;3.70;;
9142;SDS011;54072;47.410;8.446;2023-05-07T02:25:55;3.73;;;3.43;;
9142;SDS011;54072;47.410;8.446;2023-05-07T02:28:22;5.40;;;3.50;;
9142;SDS011;54072;47.410;8.446;2023-05-07T02:30:50;5.47;;;3.97;;
9142;SDS011;54072;47.410;8.446;2023-05-07T02:33:19;3.73;;;3.43;;
9142;SDS011;54072;47.410;8.446;2023-05-07T02:35:47;4.90;;;3.70;;
9142;SDS011;54072;47.410;8.446;2023-05-07T02:38:14;4.53;;;3.40;;
9142;SDS011;54072;47.410;8.446;2023-05-07T02:40:41;4.10;;;3.23;;
9142;SDS011;54072;47.410;8.446;2023-05-07T02:43:09;4.60;;;3.20;;
9142;SDS011;54072;47.410;8.446;2023-05-07T02:45:36;3.60;;;3.30;;
9142;SDS011;54072;47.410;8.446;2023-05-07T02:48:04;5.20;;;3.80;;
9142;SDS011;54072;47.410;8.446;2023-05-07T02:50:34;4.00;;;3.40;;
9142;SDS011;54072;47.410;8.446;2023-05-07T02:53:01;5.37;;;3.33;;
9142;SDS011;54072;47.410;8.446;2023-05-07T02:55:29;3.80;;;3.50;;
9142;SDS011;54072;47.410;8.446;2023-05-07T02:57:57;5.47;;;3.43;;
9142;SDS011;54072;47.410;8.446;2023-05-07T03:00:25;3.57;;;3.27;;
9142;SDS011;54072;47.410;8.446;2023-05-07T03:02:52;4.03;;;3.63;;
9142;SDS011;54072;47.410;8.446;2023-05-07T03:05:20;4.40;;;3.40;;
9142;SDS011;54072;47.410;8.446;2023-05-07T03:07:48;5.57;;;3.53;;
9142;SDS011;54072;47.410;8.446;2023-05-07T03:10:16;5.10;;;3.93;;
9142;SDS011;54072;47.410;8.446;2023-05-07T03:12:44;7.33;;;3.43;;
9142;SDS011;54072;47.410;8.446;2023-05-07T03:15:12;3.93;;;3.50;;
9142;SDS011;54072;47.410;8.446;2023-05-07T03:17:41;4.87;;;3.63;;
9142;SDS011;54072;47.410;8.446;2023-05-07T03:20:09;3.83;;;3.30;;
9142;SDS011;54072;47.410;8.446;2023-05-07T03:22:37;3.90;;;3.60;;
9142;SDS011;54072;47.410;8.446;2023-05-07T03:25:06;3.70;;;3.40;;
9142;SDS011;54072;47.410;8.446;2023-05-07T03:27:34;3.97;;;3.50;;
9142;SDS011;54072;47.410;8.446;2023-05-07T03:30:02;4.13;;;3.70;;
9142;SDS011;54072;47.410;8.446;2023-05-07T03:32:29;3.97;;;3.57;;
9142;SDS011;54072;47.410;8.446;2023-05-07T03:34:57;4.00;;;3.60;;
9142;SDS011;54072;47.410;8.446;2023-05-07T03:37:24;5.30;;;4.07;;
9142;SDS011;54072;47.410;8.446;2023-05-07T03:39:52;4.23;;;3.83;;
9142;SDS011;54072;47.410;8.446;2023-05-07T03:42:21;4.47;;;3.80;;
9142;SDS011;54072;47.410;8.446;2023-05-07T03:44:48;4.67;;;3.60;;
9142;SDS011;54072;47.410;8.446;2023-05-07T03:47:16;6.67;;;3.90;;
9142;SDS011;54072;47.410;8.446;2023-05-07T03:49:43;6.20;;;4.10;;
9142;SDS011;54072;47.410;8.446;2023-05-07T03:52:11;4.90;;;4.40;;
9142;SDS011;54072;47.410;8.446;2023-05-07T03:54:38;7.90;;;5.20;;
9142;SDS011;54072;47.410;8.446;2023-05-07T03:57:06;8.20;;;7.50;;
9142;SDS011;54072;47.410;8.446;2023-05-07T03:59:34;6.87;;;5.20;;
9142;SDS011;54072;47.410;8.446;2023-05-07T04:02:02;5.60;;;4.00;;
9142;SDS011;54072;47.410;8.446;2023-05-07T04:04:30;4.53;;;4.13;;
9142;SDS011;54072;47.410;8.446;2023-05-07T04:06:59;5.30;;;4.00;;
9142;SDS011;54072;47.410;8.446;2023-05-07T04:09:26;4.43;;;4.00;;
9142;SDS011;54072;47.410;8.446;2023-05-07T04:11:54;3.77;;;3.47;;
9142;SDS011;54072;47.410;8.446;2023-05-07T04:14:21;4.60;;;3.40;;
9142;SDS011;54072;47.410;8.446;2023-05-07T04:16:50;4.40;;;3.83;;
9142;SDS011;54072;47.410;8.446;2023-05-07T04:19:18;3.70;;;3.40;;
9142;SDS011;54072;47.410;8.446;2023-05-07T04:21:45;5.13;;;3.97;;
9142;SDS011;54072;47.410;8.446;2023-05-07T04:24:13;5.90;;;4.17;;
9142;SDS011;54072;47.410;8.446;2023-05-07T04:26:41;4.10;;;3.70;;
9142;SDS011;54072;47.410;8.446;2023-05-07T04:29:08;4.57;;;3.60;;
9142;SDS011;54072;47.410;8.446;2023-05-07T04:31:36;4.20;;;3.40;;
9142;SDS011;54072;47.410;8.446;2023-05-07T04:34:05;5.60;;;3.27;;
9142;SDS011;54072;47.410;8.446;2023-05-07T04:36:33;4.20;;;3.27;;
9142;SDS011;54072;47.410;8.446;2023-05-07T04:39:02;3.30;;;3.00;;
9142;SDS011;54072;47.410;8.446;2023-05-07T04:41:29;5.07;;;3.80;;
9142;SDS011;54072;47.410;8.446;2023-05-07T04:43:57;3.37;;;3.17;;
9142;SDS011;54072;47.410;8.446;2023-05-07T04:46:25;3.20;;;2.90;;
9142;SDS011;54072;47.410;8.446;2023-05-07T04:48:52;3.80;;;3.33;;
9142;SDS011;54072;47.410;8.446;2023-05-07T04:51:21;4.27;;;3.47;;
9142;SDS011;54072;47.410;8.446;2023-05-07T04:53:49;4.03;;;3.30;;
9142;SDS011;54072;47.410;8.446;2023-05-07T04:56:16;3.90;;;3.50;;
9142;SDS011;54072;47.410;8.446;2023-05-07T04:58:44;4.73;;;3.40;;
9142;SDS011;54072;47.410;8.446;2023-05-07T05:01:11;4.00;;;3.63;;
9142;SDS011;54072;47.410;8.446;2023-05-07T05:03:39;6.03;;;3.53;;
9142;SDS011;54072;47.410;8.446;2023-05-07T05:06:07;5.10;;;3.77;;
9142;SDS011;54072;47.410;8.446;2023-05-07T05:08:36;3.80;;;3.50;;
9142;SDS011;54072;47.410;8.446;2023-05-07T05:11:03;5.60;;;3.70;;
9142;SDS011;54072;47.410;8.446;2023-05-07T05:13:31;3.90;;;3.57;;
9142;SDS011;54072;47.410;8.446;2023-05-07T05:15:59;4.30;;;3.90;;
9142;SDS011;54072;47.410;8.446;2023-05-07T05:18:26;3.87;;;3.57;;
9142;SDS011;54072;47.410;8.446;2023-05-07T05:20:54;4.27;;;3.80;;
9142;SDS011;54072;47.410;8.446;2023-05-07T05:23:21;4.37;;;3.37;;
9142;SDS011;54072;47.410;8.446;2023-05-07T05:25:50;3.60;;;3.30;;
9142;SDS011;54072;47.410;8.446;2023-05-07T05:28:22;3.93;;;3.40;;
9142;SDS011;54072;47.410;8.446;2023-05-07T05:30:49;4.13;;;3.83;;
9142;SDS011;54072;47.410;8.446;2023-05-07T05:33:17;5.00;;;3.73;;
9142;SDS011;54072;47.410;8.446;2023-05-07T05:35:44;4.50;;;3.07;;
9142;SDS011;54072;47.410;8.446;2023-05-07T05:38:12;3.30;;;3.00;;
9142;SDS011;54072;47.410;8.446;2023-05-07T05:40:40;3.17;;;2.87;;
9142;SDS011;54072;47.410;8.446;2023-05-07T05:43:09;3.00;;;2.80;;
9142;SDS011;54072;47.410;8.446;2023-05-07T05:45:36;3.60;;;2.77;;
9142;SDS011;54072;47.410;8.446;2023-05-07T05:48:04;3.00;;;2.80;;
9142;SDS011;54072;47.410;8.446;2023-05-07T05:50:31;4.50;;;2.60;;
9142;SDS011;54072;47.410;8.446;2023-05-07T05:52:59;3.60;;;2.93;;
9142;SDS011;54072;47.410;8.446;2023-05-07T05:55:26;3.50;;;2.90;;
9142;SDS011;54072;47.410;8.446;2023-05-07T05:57:54;3.20;;;3.00;;
9142;SDS011;54072;47.410;8.446;2023-05-07T06:00:23;5.13;;;3.40;;
9142;SDS011;54072;47.410;8.446;2023-05-07T06:02:50;7.63;;;3.50;;
9142;SDS011;54072;47.410;8.446;2023-05-07T06:05:18;4.37;;;3.20;;
9142;SDS011;54072;47.410;8.446;2023-05-07T06:07:45;3.77;;;3.47;;
9142;SDS011;54072;47.410;8.446;2023-05-07T06:10:13;4.83;;;4.13;;
9142;SDS011;54072;47.410;8.446;2023-05-07T06:12:41;4.47;;;3.83;;
9142;SDS011;54072;47.410;8.446;2023-05-07T06:15:09;4.30;;;3.90;;
9142;SDS011;54072;47.410;8.446;2023-05-07T06:17:38;4.10;;;3.63;;
9142;SDS011;54072;47.410;8.446;2023-05-07T06:20:06;4.93;;;4.43;;
9142;SDS011;54072;47.410;8.446;2023-05-07T06:22:34;4.87;;;3.90;;
9142;SDS011;54072;47.410;8.446;2023-05-07T06:25:01;5.57;;;4.07;;
9142;SDS011;54072;47.410;8.446;2023-05-07T06:27:29;4.63;;;4.10;;
9142;SDS011;54072;47.410;8.446;2023-05-07T06:29:56;4.77;;;3.90;;
9142;SDS011;54072;47.410;8.446;2023-05-07T06:32:24;4.93;;;4.10;;
9142;SDS011;54072;47.410;8.446;2023-05-07T06:34:53;5.63;;;3.73;;
9142;SDS011;54072;47.410;8.446;2023-05-07T06:37:20;5.30;;;4.00;;
9142;SDS011;54072;47.410;8.446;2023-05-07T06:39:48;4.70;;;4.10;;
9142;SDS011;54072;47.410;8.446;2023-05-07T06:42:15;5.10;;;3.60;;
9142;SDS011;54072;47.410;8.446;2023-05-07T06:44:43;4.80;;;4.30;;
9142;SDS011;54072;47.410;8.446;2023-05-07T06:47:10;5.03;;;4.40;;
9142;SDS011;54072;47.410;8.446;2023-05-07T06:49:39;5.00;;;4.23;;
9142;SDS011;54072;47.410;8.446;2023-05-07T06:52:08;5.33;;;4.07;;
9142;SDS011;54072;47.410;8.446;2023-05-07T06:54:36;4.97;;;3.90;;
9142;SDS011;54072;47.410;8.446;2023-05-07T06:57:03;4.53;;;4.13;;
9142;SDS011;54072;47.410;8.446;2023-05-07T06:59:30;5.27;;;4.17;;
9142;SDS011;54072;47.410;8.446;2023-05-07T07:01:58;4.80;;;4.13;;
9142;SDS011;54072;47.410;8.446;2023-05-07T07:04:25;6.43;;;4.00;;
9142;SDS011;54072;47.410;8.446;2023-05-07T07:06:54;4.43;;;3.67;;
9142;SDS011;54072;47.410;8.446;2023-05-07T07:09:24;4.23;;;3.73;;
9142;SDS011;54072;47.410;8.446;2023-05-07T07:11:51;3.80;;;3.50;;
9142;SDS011;54072;47.410;8.446;2023-05-07T07:14:19;4.57;;;3.70;;
9142;SDS011;54072;47.410;8.446;2023-05-07T07:16:46;5.30;;;3.20;;
9142;SDS011;54072;47.410;8.446;2023-05-07T07:19:14;5.07;;;3.30;;
9142;SDS011;54072;47.410;8.446;2023-05-07T07:21:42;3.70;;;3.40;;
9142;SDS011;54072;47.410;8.446;2023-05-07T07:24:11;3.97;;;3.50;;
9142;SDS011;54072;47.410;8.446;2023-05-07T07:26:39;3.37;;;3.07;;
9142;SDS011;54072;47.410;8.446;2023-05-07T07:29:08;3.90;;;3.43;;
9142;SDS011;54072;47.410;8.446;2023-05-07T07:31:36;3.53;;;3.23;;
9142;SDS011;54072;47.410;8.446;2023-05-07T07:34:04;5.97;;;3.30;;
9142;SDS011;54072;47.410;8.446;2023-05-07T07:36:31;3.70;;;3.37;;
9142;SDS011;54072;47.410;8.446;2023-05-07T07:39:04;3.90;;;3.00;;
9142;SDS011;54072;47.410;8.446;2023-05-07T07:41:31;5.00;;;3.03;;
9142;SDS011;54072;47.410;8.446;2023-05-07T07:44:00;4.10;;;3.40;;
9142;SDS011;54072;47.410;8.446;2023-05-07T07:46:29;3.53;;;3.22;;
9142;SDS011;54072;47.410;8.446;2023-05-07T07:48:57;4.03;;;3.60;;
9142;SDS011;54072;47.410;8.446;2023-05-07T07:51:25;5.13;;;3.50;;
9142;SDS011;54072;47.410;8.446;2023-05-07T07:53:53;3.25;;;3.00;;
9142;SDS011;54072;47.410;8.446;2023-05-07T07:56:21;3.92;;;3.22;;
9142;SDS011;54072;47.410;8.446;2023-05-07T07:58:49;3.10;;;2.78;;
9142;SDS011;54072;47.410;8.446;2023-05-07T08:01:17;4.15;;;2.97;;
9142;SDS011;54072;47.410;8.446;2023-05-07T08:03:45;3.25;;;2.95;;
9142;SDS011;54072;47.410;8.446;2023-05-07T08:06:13;3.33;;;3.13;;
9142;SDS011;54072;47.410;8.446;2023-05-07T08:08:40;3.00;;;2.80;;
9142;SDS011;54072;47.410;8.446;2023-05-07T08:11:08;3.17;;;2.88;;
9142;SDS011;54072;47.410;8.446;2023-05-07T08:13:36;3.00;;;2.67;;
9142;SDS011;54072;47.410;8.446;2023-05-07T08:16:03;3.42;;;3.13;;
9142;SDS011;54072;47.410;8.446;2023-05-07T08:18:32;3.08;;;2.85;;
9142;SDS011;54072;47.410;8.446;2023-05-07T08:21:00;3.38;;;3.08;;
9142;SDS011;54072;47.410;8.446;2023-05-07T08:23:28;3.10;;;2.90;;
9142;SDS011;54072;47.410;8.446;2023-05-07T08:25:55;3.17;;;2.90;;
9142;SDS011;54072;47.410;8.446;2023-05-07T08:28:23;3.15;;;2.85;;
9142;SDS011;54072;47.410;8.446;2023-05-07T08:30:51;4.32;;;2.95;;
9142;SDS011;54072;47.410;8.446;2023-05-07T08:33:18;3.45;;;3.25;;
9142;SDS011;54072;47.410;8.446;2023-05-07T08:35:47;3.60;;;3.30;;
9142;SDS011;54072;47.410;8.446;2023-05-07T08:38:15;3.40;;;3.20;;
9142;SDS011;54072;47.410;8.446;2023-05-07T08:40:42;3.67;;;3.30;;
9142;SDS011;54072;47.410;8.446;2023-05-07T08:43:10;3.97;;;3.17;;
9142;SDS011;54072;47.410;8.446;2023-05-07T08:45:39;4.35;;;3.58;;
9142;SDS011;54072;47.410;8.446;2023-05-07T08:48:08;3.53;;;3.33;;
9142;SDS011;54072;47.410;8.446;2023-05-07T08:50:36;3.70;;;3.40;;
9142;SDS011;54072;47.410;8.446;2023-05-07T08:53:05;3.72;;;3.40;;
9142;SDS011;54072;47.410;8.446;2023-05-07T08:55:32;3.50;;;3.20;;
9142;SDS011;54072;47.410;8.446;2023-05-07T08:58:00;3.45;;;3.17;;
9142;SDS011;54072;47.410;8.446;2023-05-07T09:00:28;3.70;;;3.40;;
9142;SDS011;54072;47.410;8.446;2023-05-07T09:02:55;4.07;;;3.55;;
9142;SDS011;54072;47.410;8.446;2023-05-07T09:05:23;4.65;;;3.47;;
9142;SDS011;54072;47.410;8.446;2023-05-07T09:07:50;3.80;;;3.40;;
9142;SDS011;54072;47.410;8.446;2023-05-07T09:10:20;3.65;;;3.35;;
9142;SDS011;54072;47.410;8.446;2023-05-07T09:12:48;3.92;;;3.63;;
9142;SDS011;54072;47.410;8.446;2023-05-07T09:15:15;3.60;;;3.30;;
9142;SDS011;54072;47.410;8.446;2023-05-07T09:17:43;3.40;;;3.17;;
9142;SDS011;54072;47.410;8.446;2023-05-07T09:20:11;4.00;;;3.60;;
9142;SDS011;54072;47.410;8.446;2023-05-07T09:22:38;5.10;;;3.40;;
9142;SDS011;54072;47.410;8.446;2023-05-07T09:25:06;3.85;;;3.10;;
9142;SDS011;54072;47.410;8.446;2023-05-07T09:27:36;3.38;;;3.05;;
9142;SDS011;54072;47.410;8.446;2023-05-07T09:30:04;3.92;;;3.35;;
9142;SDS011;54072;47.410;8.446;2023-05-07T09:32:34;3.92;;;3.10;;
9142;SDS011;54072;47.410;8.446;2023-05-07T09:35:01;6.38;;;3.28;;
9142;SDS011;54072;47.410;8.446;2023-05-07T09:37:30;3.70;;;3.40;;
9142;SDS011;54072;47.410;8.446;2023-05-07T09:39:57;3.20;;;3.00;;
9142;SDS011;54072;47.410;8.446;2023-05-07T09:42:25;3.28;;;3.08;;
9142;SDS011;54072;47.410;8.446;2023-05-07T09:44:54;3.40;;;3.10;;
9142;SDS011;54072;47.410;8.446;2023-05-07T09:47:23;3.55;;;3.30;;
9142;SDS011;54072;47.410;8.446;2023-05-07T09:49:53;3.83;;;3.20;;
9142;SDS011;54072;47.410;8.446;2023-05-07T09:52:23;4.00;;;3.38;;
9142;SDS011;54072;47.410;8.446;2023-05-07T09:54:51;4.70;;;3.55;;
9142;SDS011;54072;47.410;8.446;2023-05-07T09:57:20;3.75;;;3.08;;
9142;SDS011;54072;47.410;8.446;2023-05-07T09:59:47;4.60;;;3.60;;
9142;SDS011;54072;47.410;8.446;2023-05-07T10:02:17;3.95;;;3.50;;
9142;SDS011;54072;47.410;8.446;2023-05-07T10:04:46;3.22;;;2.92;;
9142;SDS011;54072;47.410;8.446;2023-05-07T10:07:15;3.50;;;3.20;;
9142;SDS011;54072;47.410;8.446;2023-05-07T10:09:43;3.22;;;2.95;;
9142;SDS011;54072;47.410;8.446;2023-05-07T10:12:14;4.45;;;3.30;;
9142;SDS011;54072;47.410;8.446;2023-05-07T10:14:42;4.65;;;3.42;;
9142;SDS011;54072;47.410;8.446;2023-05-07T10:17:09;3.72;;;3.30;;
9142;SDS011;54072;47.410;8.446;2023-05-07T10:19:40;3.58;;;3.28;;
9142;SDS011;54072;47.410;8.446;2023-05-07T10:22:08;3.60;;;3.30;;
9142;SDS011;54072;47.410;8.446;2023-05-07T10:24:36;4.97;;;3.65;;
9142;SDS011;54072;47.410;8.446;2023-05-07T10:27:04;3.28;;;2.97;;
9142;SDS011;54072;47.410;8.446;2023-05-07T10:29:37;3.63;;;3.33;;
9142;SDS011;54072;47.410;8.446;2023-05-07T10:32:13;4.82;;;2.85;;
9142;SDS011;54072;47.410;8.446;2023-05-07T10:34:43;6.45;;;3.78;;
9142;SDS011;54072;47.410;8.446;2023-05-07T10:37:12;3.67;;;3.38;;
9142;SDS011;54072;47.410;8.446;2023-05-07T10:39:40;4.25;;;3.20;;
9142;SDS011;54072;47.410;8.446;2023-05-07T10:42:08;3.60;;;3.30;;
9142;SDS011;54072;47.410;8.446;2023-05-07T10:44:35;3.40;;;3.10;;
9142;SDS011;54072;47.410;8.446;2023-05-07T10:47:04;4.80;;;3.70;;
9142;SDS011;54072;47.410;8.446;2023-05-07T10:49:32;3.30;;;3.00;;
9142;SDS011;54072;47.410;8.446;2023-05-07T10:52:12;3.70;;;3.40;;
9142;SDS011;54072;47.410;8.446;2023-05-07T10:54:40;3.63;;;3.38;;
9142;SDS011;54072;47.410;8.446;2023-05-07T10:59:53;5.03;;;3.88;;
9142;SDS011;54072;47.410;8.446;2023-05-07T11:02:22;6.50;;;3.85;;
9142;SDS011;54072;47.410;8.446;2023-05-07T11:07:33;4.03;;;3.63;;
9142;SDS011;54072;47.410;8.446;2023-05-07T11:10:04;4.07;;;3.65;;
9142;SDS011;54072;47.410;8.446;2023-05-07T11:15:35;4.22;;;3.83;;
9142;SDS011;54072;47.410;8.446;2023-05-07T11:18:03;4.07;;;3.72;;
9142;SDS011;54072;47.410;8.446;2023-05-07T11:20:44;4.47;;;3.55;;
9142;SDS011;54072;47.410;8.446;2023-05-07T11:25:59;3.65;;;3.20;;
9142;SDS011;54072;47.410;8.446;2023-05-07T11:28:27;4.15;;;3.75;;
9142;SDS011;54072;47.410;8.446;2023-05-07T11:30:54;4.10;;;3.53;;
9142;SDS011;54072;47.410;8.446;2023-05-07T11:33:23;4.82;;;3.88;;
9142;SDS011;54072;47.410;8.446;2023-05-07T11:35:52;6.32;;;3.75;;
9142;SDS011;54072;47.410;8.446;2023-05-07T11:38:20;4.93;;;3.85;;
9142;SDS011;54072;47.410;8.446;2023-05-07T11:40:48;4.03;;;3.72;;
9142;SDS011;54072;47.410;8.446;2023-05-07T11:43:17;3.95;;;3.65;;
9142;SDS011;54072;47.410;8.446;2023-05-07T11:45:45;4.30;;;3.90;;
9142;SDS011;54072;47.410;8.446;2023-05-07T11:48:13;3.38;;;3.15;;
9142;SDS011;54072;47.410;8.446;2023-05-07T11:50:49;3.80;;;3.50;;
9142;SDS011;54072;47.410;8.446;2023-05-07T11:53:17;4.13;;;3.80;;
9142;SDS011;54072;47.410;8.446;2023-05-07T11:55:46;3.45;;;3.15;;
9142;SDS011;54072;47.410;8.446;2023-05-07T11:58:20;4.03;;;3.63;;
9142;SDS011;54072;47.410;8.446;2023-05-07T12:00:49;3.50;;;3.20;;
9142;SDS011;54072;47.410;8.446;2023-05-07T12:03:17;3.53;;;3.22;;
9142;SDS011;54072;47.410;8.446;2023-05-07T12:05:45;3.97;;;3.58;;
9142;SDS011;54072;47.410;8.446;2023-05-07T12:08:13;3.95;;;3.45;;
9142;SDS011;54072;47.410;8.446;2023-05-07T12:10:41;3.92;;;3.55;;
9142;SDS011;54072;47.410;8.446;2023-05-07T12:13:14;4.30;;;3.40;;
9142;SDS011;54072;47.410;8.446;2023-05-07T12:15:41;3.85;;;3.55;;
9142;SDS011;54072;47.410;8.446;2023-05-07T12:18:10;3.47;;;3.20;;
9142;SDS011;54072;47.410;8.446;2023-05-07T12:20:38;5.40;;;3.90;;
9142;SDS011;54072;47.410;8.446;2023-05-07T12:23:06;4.10;;;3.80;;
9142;SDS011;54072;47.410;8.446;2023-05-07T12:25:34;5.53;;;3.80;;
9142;SDS011;54072;47.410;8.446;2023-05-07T12:28:02;3.97;;;3.63;;
9142;SDS011;54072;47.410;8.446;2023-05-07T12:30:31;3.85;;;3.55;;
9142;SDS011;54072;47.410;8.446;2023-05-07T12:32:58;3.72;;;3.38;;
9142;SDS011;54072;47.410;8.446;2023-05-07T12:35:28;3.83;;;3.50;;
9142;SDS011;54072;47.410;8.446;2023-05-07T12:37:55;4.00;;;3.70;;
9142;SDS011;54072;47.410;8.446;2023-05-07T12:40:34;4.45;;;3.83;;
9142;SDS011;54072;47.410;8.446;2023-05-07T12:43:02;4.65;;;4.25;;
9142;SDS011;54072;47.410;8.446;2023-05-07T12:45:29;5.80;;;4.15;;
9142;SDS011;54072;47.410;8.446;2023-05-07T12:47:57;4.47;;;4.18;;
9142;SDS011;54072;47.410;8.446;2023-05-07T12:50:32;4.97;;;4.43;;
9142;SDS011;54072;47.410;8.446;2023-05-07T12:52:59;5.55;;;3.63;;
9142;SDS011;54072;47.410;8.446;2023-05-07T12:55:29;5.75;;;3.72;;
9142;SDS011;54072;47.410;8.446;2023-05-07T12:58:00;4.65;;;3.80;;
9142;SDS011;54072;47.410;8.446;2023-05-07T13:00:34;5.45;;;3.88;;
9142;SDS011;54072;47.410;8.446;2023-05-07T13:03:02;8.02;;;3.80;;
9142;SDS011;54072;47.410;8.446;2023-05-07T13:05:30;3.97;;;3.67;;
9142;SDS011;54072;47.410;8.446;2023-05-07T13:07:59;4.90;;;3.50;;
9142;SDS011;54072;47.410;8.446;2023-05-07T13:10:26;4.25;;;3.85;;
9142;SDS011;54072;47.410;8.446;2023-05-07T13:12:54;5.13;;;3.67;;
9142;SDS011;54072;47.410;8.446;2023-05-07T13:15:22;3.35;;;3.05;;
9142;SDS011;54072;47.410;8.446;2023-05-07T13:17:49;3.63;;;3.33;;
9142;SDS011;54072;47.410;8.446;2023-05-07T13:20:17;3.70;;;3.40;;
9142;SDS011;54072;47.410;8.446;2023-05-07T13:22:45;3.40;;;3.10;;
9142;SDS011;54072;47.410;8.446;2023-05-07T13:25:13;4.18;;;3.28;;
9142;SDS011;54072;47.410;8.446;2023-05-07T13:27:41;3.25;;;3.05;;
9142;SDS011;54072;47.410;8.446;2023-05-07T13:30:09;5.15;;;3.38;;
9142;SDS011;54072;47.410;8.446;2023-05-07T13:32:36;4.30;;;3.15;;
9142;SDS011;54072;47.410;8.446;2023-05-07T13:35:04;3.40;;;3.10;;
9142;SDS011;54072;47.410;8.446;2023-05-07T13:37:32;3.10;;;2.90;;
9142;SDS011;54072;47.410;8.446;2023-05-07T13:40:00;3.40;;;3.10;;
9142;SDS011;54072;47.410;8.446;2023-05-07T13:42:28;3.08;;;2.58;;
9142;SDS011;54072;47.410;8.446;2023-05-07T13:44:56;3.00;;;2.75;;
9142;SDS011;54072;47.410;8.446;2023-05-07T13:47:24;3.00;;;2.80;;
9142;SDS011;54072;47.410;8.446;2023-05-07T13:49:52;3.13;;;2.85;;
9142;SDS011;54072;47.410;8.446;2023-05-07T13:52:19;4.07;;;2.53;;
9142;SDS011;54072;47.410;8.446;2023-05-07T13:54:47;2.75;;;2.53;;
9142;SDS011;54072;47.410;8.446;2023-05-07T13:57:14;2.88;;;2.60;;
9142;SDS011;54072;47.410;8.446;2023-05-07T13:59:43;2.80;;;2.60;;
9142;SDS011;54072;47.410;8.446;2023-05-07T14:02:11;2.90;;;2.55;;
9142;SDS011;54072;47.410;8.446;2023-05-07T14:04:38;2.80;;;2.28;;
9142;SDS011;54072;47.410;8.446;2023-05-07T14:07:06;4.10;;;2.45;;
9142;SDS011;54072;47.410;8.446;2023-05-07T14:09:33;2.25;;;2.15;;
9142;SDS011;54072;47.410;8.446;2023-05-07T14:12:01;3.00;;;2.30;;
9142;SDS011;54072;47.410;8.446;2023-05-07T14:14:28;2.58;;;2.38;;
9142;SDS011;54072;47.410;8.446;2023-05-07T14:16:57;2.50;;;2.30;;
9142;SDS011;54072;47.410;8.446;2023-05-07T14:19:25;3.55;;;2.47;;
9142;SDS011;54072;47.410;8.446;2023-05-07T14:21:53;2.50;;;2.30;;
9142;SDS011;54072;47.410;8.446;2023-05-07T14:24:21;2.63;;;2.42;;
9142;SDS011;54072;47.410;8.446;2023-05-07T14:26:56;3.65;;;2.40;;
9142;SDS011;54072;47.410;8.446;2023-05-07T14:29:23;2.60;;;2.40;;
9142;SDS011;54072;47.410;8.446;2023-05-07T14:31:51;4.13;;;2.50;;
9142;SDS011;54072;47.410;8.446;2023-05-07T14:34:20;2.63;;;2.42;;
9142;SDS011;54072;47.410;8.446;2023-05-07T14:36:47;2.50;;;2.30;;
9142;SDS011;54072;47.410;8.446;2023-05-07T14:39:15;2.47;;;2.37;;
9142;SDS011;54072;47.410;8.446;2023-05-07T14:41:42;3.50;;;2.30;;
9142;SDS011;54072;47.410;8.446;2023-05-07T14:44:10;2.13;;;2.03;;
9142;SDS011;54072;47.410;8.446;2023-05-07T14:46:37;2.10;;;2.00;;
9142;SDS011;54072;47.410;8.446;2023-05-07T14:49:05;2.40;;;2.20;;
9142;SDS011;54072;47.410;8.446;2023-05-07T14:51:38;2.50;;;2.30;;
9142;SDS011;54072;47.410;8.446;2023-05-07T14:54:06;2.30;;;2.10;;
9142;SDS011;54072;47.410;8.446;2023-05-07T14:56:34;2.33;;;2.23;;
9142;SDS011;54072;47.410;8.446;2023-05-07T14:59:02;2.70;;;2.03;;
9142;SDS011;54072;47.410;8.446;2023-05-07T15:01:30;2.63;;;2.40;;
9142;SDS011;54072;47.410;8.446;2023-05-07T15:03:57;2.57;;;2.20;;
9142;SDS011;54072;47.410;8.446;2023-05-07T15:06:25;2.63;;;2.43;;
9142;SDS011;54072;47.410;8.446;2023-05-07T15:08:54;3.67;;;2.83;;
9142;SDS011;54072;47.410;8.446;2023-05-07T15:11:21;3.03;;;2.77;;
9142;SDS011;54072;47.410;8.446;2023-05-07T15:13:49;4.27;;;3.20;;
9142;SDS011;54072;47.410;8.446;2023-05-07T15:16:17;4.17;;;3.40;;